To NAV CANADA Home Page Login to a new session Search on AWWS site Feedback and Comments Disclaimer Vers la page française équivalente Tips FAQ What's new on the site To the Forecasts and Observations / NOTAM section To "File a Flight Plan" website Publications and other links Update of the User's profile FIC Telephone Numbers My Weather Data Folder Route Weather Data Regional Weather Data Local Weather Data To the Forecasts and Observations / NOTAM section
Request Generated 09/25/2016 at 01:56:38 UTC . Weather information available at that time is displayed.

METAR/TAF

QUEBEC/JEAN LESAGE INTL/QC    

METAR CYQB 250100Z 29005KT 15SM FEW040 FEW070 07/02 A3011 RMK SC1AC1
SLP201=
METAR CYQB 250000Z 31008KT 15SM FEW040 SCT070 09/02 A3010 RMK SC1AC2
SLP199=
METAR CYQB 242300Z 30008KT 30SM FEW040 SCT080 SCT220 09/02 A3009 RMK
SC2AC1CI1 SLP193=

TAF CYQB 242338Z 2500/2524 30007KT P6SM BKN060 BKN220
BECMG 2501/2503 27008KT
BECMG 2506/2508 FEW060
FM251500 31010G20KT P6SM BKN050
BECMG 2521/2522 33007KT
RMK NXT FCST BY 250600Z=
Your time UTC time
Weather data provided by Environment Canada and NAV CANADA